sensor_id;sensor_type;location;lat;lon;timestamp;temperature;humidity
28532;DHT22;15738;44.860;10.066;2023-04-15T00:02:24;12.90;98.00
28532;DHT22;15738;44.860;10.066;2023-04-15T00:05:10;12.80;98.00
28532;DHT22;15738;44.860;10.066;2023-04-15T00:07:56;12.80;97.80
28532;DHT22;15738;44.860;10.066;2023-04-15T00:10:43;12.80;98.30
28532;DHT22;15738;44.860;10.066;2023-04-15T00:13:31;12.70;98.60
28532;DHT22;15738;44.860;10.066;2023-04-15T00:16:20;12.70;98.60
28532;DHT22;15738;44.860;10.066;2023-04-15T00:19:05;12.60;99.00
28532;DHT22;15738;44.860;10.066;2023-04-15T00:21:51;12.50;99.20
28532;DHT22;15738;44.860;10.066;2023-04-15T00:24:37;12.40;99.30
28532;DHT22;15738;44.860;10.066;2023-04-15T00:27:23;12.40;99.60
28532;DHT22;15738;44.860;10.066;2023-04-15T00:30:09;12.30;99.20
28532;DHT22;15738;44.860;10.066;2023-04-15T00:32:56;12.20;99.80
28532;DHT22;15738;44.860;10.066;2023-04-15T00:35:41;12.10;99.90
28532;DHT22;15738;44.860;10.066;2023-04-15T00:38:27;12.10;99.90
28532;DHT22;15738;44.860;10.066;2023-04-15T00:41:12;12.00;99.90
28532;DHT22;15738;44.860;10.066;2023-04-15T00:43:59;12.00;99.90
28532;DHT22;15738;44.860;10.066;2023-04-15T00:46:45;11.90;99.90
28532;DHT22;15738;44.860;10.066;2023-04-15T00:49:30;11.70;99.90
28532;DHT22;15738;44.860;10.066;2023-04-15T00:52:16;11.70;99.90
28532;DHT22;15738;44.860;10.066;2023-04-15T00:55:02;11.60;99.90
28532;DHT22;15738;44.860;10.066;2023-04-15T00:57:49;11.50;99.90
28532;DHT22;15738;44.860;10.066;2023-04-15T01:00:35;11.50;99.90
28532;DHT22;15738;44.860;10.066;2023-04-15T01:03:21;11.40;99.90
28532;DHT22;15738;44.860;10.066;2023-04-15T01:06:07;11.40;99.90
28532;DHT22;15738;44.860;10.066;2023-04-15T01:08:53;11.40;99.90
28532;DHT22;15738;44.860;10.066;2023-04-15T01:11:39;11.30;99.90
28532;DHT22;15738;44.860;10.066;2023-04-15T01:14:25;11.30;99.90
28532;DHT22;15738;44.860;10.066;2023-04-15T01:17:11;11.30;99.90
28532;DHT22;15738;44.860;10.066;2023-04-15T01:19:57;11.20;99.90
28532;DHT22;15738;44.860;10.066;2023-04-15T01:22:43;11.10;99.90
28532;DHT22;15738;44.860;10.066;2023-04-15T01:25:30;11.10;99.90
28532;DHT22;15738;44.860;10.066;2023-04-15T01:28:17;11.00;99.90
28532;DHT22;15738;44.860;10.066;2023-04-15T01:31:10;10.90;99.90
28532;DHT22;15738;44.860;10.066;2023-04-15T01:33:57;10.90;99.90
28532;DHT22;15738;44.860;10.066;2023-04-15T01:36:42;10.80;99.90
28532;DHT22;15738;44.860;10.066;2023-04-15T01:39:28;10.80;99.90
28532;DHT22;15738;44.860;10.066;2023-04-15T01:42:14;10.70;99.90
28532;DHT22;15738;44.860;10.066;2023-04-15T01:45:00;10.70;99.90
28532;DHT22;15738;44.860;10.066;2023-04-15T01:47:46;10.70;99.90
28532;DHT22;15738;44.860;10.066;2023-04-15T01:50:31;10.70;99.90
28532;DHT22;15738;44.860;10.066;2023-04-15T01:53:17;10.60;99.90
28532;DHT22;15738;44.860;10.066;2023-04-15T01:56:04;10.50;99.90
28532;DHT22;15738;44.860;10.066;2023-04-15T01:58:49;10.50;99.90
28532;DHT22;15738;44.860;10.066;2023-04-15T02:01:35;10.50;99.90
28532;DHT22;15738;44.860;10.066;2023-04-15T02:04:21;10.60;99.90
28532;DHT22;15738;44.860;10.066;2023-04-15T02:07:07;10.60;99.90
28532;DHT22;15738;44.860;10.066;2023-04-15T02:09:53;10.60;99.90
28532;DHT22;15738;44.860;10.066;2023-04-15T02:12:38;10.60;99.90
28532;DHT22;15738;44.860;10.066;2023-04-15T02:15:25;10.60;99.90
28532;DHT22;15738;44.860;10.066;2023-04-15T02:18:10;10.50;99.90
28532;DHT22;15738;44.860;10.066;2023-04-15T02:20:56;10.50;99.90
28532;DHT22;15738;44.860;10.066;2023-04-15T02:23:43;10.50;99.90
28532;DHT22;15738;44.860;10.066;2023-04-15T02:26:30;10.50;99.90
28532;DHT22;15738;44.860;10.066;2023-04-15T02:29:17;10.50;99.90
28532;DHT22;15738;44.860;10.066;2023-04-15T02:32:03;10.50;99.90
28532;DHT22;15738;44.860;10.066;2023-04-15T02:34:48;10.60;99.90
28532;DHT22;15738;44.860;10.066;2023-04-15T02:37:35;10.50;99.90
28532;DHT22;15738;44.860;10.066;2023-04-15T02:40:27;10.40;99.90
28532;DHT22;15738;44.860;10.066;2023-04-15T02:43:12;10.30;99.90
28532;DHT22;15738;44.860;10.066;2023-04-15T02:45:58;10.30;99.90
28532;DHT22;15738;44.860;10.066;2023-04-15T02:48:44;10.30;99.90
28532;DHT22;15738;44.860;10.066;2023-04-15T02:51:30;10.20;99.90
28532;DHT22;15738;44.860;10.066;2023-04-15T02:54:20;12.00;99.90
28532;DHT22;15738;44.860;10.066;2023-04-15T02:57:07;10.10;99.90
28532;DHT22;15738;44.860;10.066;2023-04-15T02:59:53;10.20;99.90
28532;DHT22;15738;44.860;10.066;2023-04-15T03:02:38;10.10;99.90
28532;DHT22;15738;44.860;10.066;2023-04-15T03:05:25;10.10;99.90
28532;DHT22;15738;44.860;10.066;2023-04-15T03:08:11;10.10;99.90
28532;DHT22;15738;44.860;10.066;2023-04-15T03:10:57;10.10;99.90
28532;DHT22;15738;44.860;10.066;2023-04-15T03:13:45;10.00;99.90
28532;DHT22;15738;44.860;10.066;2023-04-15T03:16:41;10.00;99.90
28532;DHT22;15738;44.860;10.066;2023-04-15T03:19:27;10.00;99.90
28532;DHT22;15738;44.860;10.066;2023-04-15T03:22:13;10.00;99.90
28532;DHT22;15738;44.860;10.066;2023-04-15T03:24:58;10.00;99.90
28532;DHT22;15738;44.860;10.066;2023-04-15T03:27:45;9.90;99.90
28532;DHT22;15738;44.860;10.066;2023-04-15T03:30:31;9.90;99.90
28532;DHT22;15738;44.860;10.066;2023-04-15T03:33:16;9.90;99.90
28532;DHT22;15738;44.860;10.066;2023-04-15T03:36:02;9.80;99.90
28532;DHT22;15738;44.860;10.066;2023-04-15T03:38:48;9.80;99.90
28532;DHT22;15738;44.860;10.066;2023-04-15T03:41:34;9.80;99.90
28532;DHT22;15738;44.860;10.066;2023-04-15T03:44:20;9.70;99.90
28532;DHT22;15738;44.860;10.066;2023-04-15T03:47:06;9.60;99.90
28532;DHT22;15738;44.860;10.066;2023-04-15T03:49:51;9.50;99.90
28532;DHT22;15738;44.860;10.066;2023-04-15T03:52:37;9.40;99.90
28532;DHT22;15738;44.860;10.066;2023-04-15T03:55:23;9.30;99.90
28532;DHT22;15738;44.860;10.066;2023-04-15T03:58:09;9.20;99.90
28532;DHT22;15738;44.860;10.066;2023-04-15T04:00:57;9.00;99.90
28532;DHT22;15738;44.860;10.066;2023-04-15T04:03:42;9.00;99.90
28532;DHT22;15738;44.860;10.066;2023-04-15T04:06:28;8.90;99.90
28532;DHT22;15738;44.860;10.066;2023-04-15T04:09:14;8.70;99.90
28532;DHT22;15738;44.860;10.066;2023-04-15T04:12:00;8.60;99.90
28532;DHT22;15738;44.860;10.066;2023-04-15T04:14:46;8.50;99.90
28532;DHT22;15738;44.860;10.066;2023-04-15T04:17:33;8.40;99.90
28532;DHT22;15738;44.860;10.066;2023-04-15T04:20:18;8.30;99.90
28532;DHT22;15738;44.860;10.066;2023-04-15T04:23:04;8.30;99.90
28532;DHT22;15738;44.860;10.066;2023-04-15T04:25:50;8.20;99.90
28532;DHT22;15738;44.860;10.066;2023-04-15T04:28:36;8.20;99.90
28532;DHT22;15738;44.860;10.066;2023-04-15T04:31:25;8.20;99.90
28532;DHT22;15738;44.860;10.066;2023-04-15T04:34:11;8.30;99.90
28532;DHT22;15738;44.860;10.066;2023-04-15T04:36:57;8.20;99.90
28532;DHT22;15738;44.860;10.066;2023-04-15T04:39:42;8.20;99.90
28532;DHT22;15738;44.860;10.066;2023-04-15T04:42:28;8.30;99.90
28532;DHT22;15738;44.860;10.066;2023-04-15T04:45:14;8.30;99.90
28532;DHT22;15738;44.860;10.066;2023-04-15T04:48:00;8.30;99.90
28532;DHT22;15738;44.860;10.066;2023-04-15T04:50:46;8.40;99.90
28532;DHT22;15738;44.860;10.066;2023-04-15T04:53:31;8.30;99.90
28532;DHT22;15738;44.860;10.066;2023-04-15T04:56:17;8.40;99.90
28532;DHT22;15738;44.860;10.066;2023-04-15T04:59:02;8.40;99.90
28532;DHT22;15738;44.860;10.066;2023-04-15T05:01:48;8.40;99.90
28532;DHT22;15738;44.860;10.066;2023-04-15T05:04:34;8.50;99.90
28532;DHT22;15738;44.860;10.066;2023-04-15T05:07:21;8.40;99.90
28532;DHT22;15738;44.860;10.066;2023-04-15T05:10:07;8.40;99.90
28532;DHT22;15738;44.860;10.066;2023-04-15T05:12:52;8.40;99.90
28532;DHT22;15738;44.860;10.066;2023-04-15T05:15:38;8.40;99.90
28532;DHT22;15738;44.860;10.066;2023-04-15T05:18:25;8.50;99.90
28532;DHT22;15738;44.860;10.066;2023-04-15T05:21:11;8.60;99.90
28532;DHT22;15738;44.860;10.066;2023-04-15T05:23:57;8.80;99.90
28532;DHT22;15738;44.860;10.066;2023-04-15T05:26:43;8.90;99.90
28532;DHT22;15738;44.860;10.066;2023-04-15T05:29:29;9.00;99.90
28532;DHT22;15738;44.860;10.066;2023-04-15T05:32:15;9.10;99.90
28532;DHT22;15738;44.860;10.066;2023-04-15T05:35:01;9.10;99.90
28532;DHT22;15738;44.860;10.066;2023-04-15T05:37:47;9.30;99.90
28532;DHT22;15738;44.860;10.066;2023-04-15T05:40:33;9.50;99.90
28532;DHT22;15738;44.860;10.066;2023-04-15T05:43:19;9.70;99.90
28532;DHT22;15738;44.860;10.066;2023-04-15T05:46:05;10.40;99.90
28532;DHT22;15738;44.860;10.066;2023-04-15T05:48:51;11.00;99.90
28532;DHT22;15738;44.860;10.066;2023-04-15T05:51:39;11.50;99.90
28532;DHT22;15738;44.860;10.066;2023-04-15T05:54:25;12.00;99.90
28532;DHT22;15738;44.860;10.066;2023-04-15T05:57:12;12.10;99.90
28532;DHT22;15738;44.860;10.066;2023-04-15T05:59:58;12.00;99.90
28532;DHT22;15738;44.860;10.066;2023-04-15T06:02:43;12.10;99.90
28532;DHT22;15738;44.860;10.066;2023-04-15T06:05:29;12.00;99.90
28532;DHT22;15738;44.860;10.066;2023-04-15T06:08:15;11.90;99.90
28532;DHT22;15738;44.860;10.066;2023-04-15T06:11:01;12.00;99.90
28532;DHT22;15738;44.860;10.066;2023-04-15T06:13:46;12.10;99.90
28532;DHT22;15738;44.860;10.066;2023-04-15T06:16:32;12.30;99.90
28532;DHT22;15738;44.860;10.066;2023-04-15T06:19:18;12.40;99.90
28532;DHT22;15738;44.860;10.066;2023-04-15T06:22:04;12.60;99.90
28532;DHT22;15738;44.860;10.066;2023-04-15T06:24:51;12.80;99.90
28532;DHT22;15738;44.860;10.066;2023-04-15T06:27:37;13.10;99.90
28532;DHT22;15738;44.860;10.066;2023-04-15T06:30:22;13.50;99.90
28532;DHT22;15738;44.860;10.066;2023-04-15T06:33:09;13.60;99.90
28532;DHT22;15738;44.860;10.066;2023-04-15T06:35:55;13.60;99.90
28532;DHT22;15738;44.860;10.066;2023-04-15T06:38:40;13.70;99.90
28532;DHT22;15738;44.860;10.066;2023-04-15T06:41:26;14.00;99.90
28532;DHT22;15738;44.860;10.066;2023-04-15T06:44:12;14.30;99.90
28532;DHT22;15738;44.860;10.066;2023-04-15T06:46:57;14.60;99.90
28532;DHT22;15738;44.860;10.066;2023-04-15T06:49:43;14.80;99.90
28532;DHT22;15738;44.860;10.066;2023-04-15T06:52:29;14.70;99.90
28532;DHT22;15738;44.860;10.066;2023-04-15T06:55:14;14.50;99.90
28532;DHT22;15738;44.860;10.066;2023-04-15T06:58:00;14.40;99.90
28532;DHT22;15738;44.860;10.066;2023-04-15T07:00:46;14.40;99.90
28532;DHT22;15738;44.860;10.066;2023-04-15T07:03:32;14.40;99.90
28532;DHT22;15738;44.860;10.066;2023-04-15T07:06:18;14.40;99.90
28532;DHT22;15738;44.860;10.066;2023-04-15T07:09:04;14.50;99.90
28532;DHT22;15738;44.860;10.066;2023-04-15T07:11:50;14.50;99.90
28532;DHT22;15738;44.860;10.066;2023-04-15T07:14:36;14.60;99.90
28532;DHT22;15738;44.860;10.066;2023-04-15T07:17:22;14.50;99.90
28532;DHT22;15738;44.860;10.066;2023-04-15T07:20:08;14.50;99.90
28532;DHT22;15738;44.860;10.066;2023-04-15T07:22:54;14.60;99.90
28532;DHT22;15738;44.860;10.066;2023-04-15T07:25:39;14.60;99.90
28532;DHT22;15738;44.860;10.066;2023-04-15T07:28:25;14.70;99.90
28532;DHT22;15738;44.860;10.066;2023-04-15T07:31:11;14.80;99.90
28532;DHT22;15738;44.860;10.066;2023-04-15T07:33:57;14.80;99.90
28532;DHT22;15738;44.860;10.066;2023-04-15T07:36:42;15.00;99.90
28532;DHT22;15738;44.860;10.066;2023-04-15T07:39:28;15.10;99.90
28532;DHT22;15738;44.860;10.066;2023-04-15T07:42:14;15.40;99.90
28532;DHT22;15738;44.860;10.066;2023-04-15T07:45:00;15.60;99.90
28532;DHT22;15738;44.860;10.066;2023-04-15T07:47:45;15.90;99.90
28532;DHT22;15738;44.860;10.066;2023-04-15T07:50:31;15.90;99.90
28532;DHT22;15738;44.860;10.066;2023-04-15T07:53:16;16.00;99.90
28532;DHT22;15738;44.860;10.066;2023-04-15T07:56:02;16.20;99.90
28532;DHT22;15738;44.860;10.066;2023-04-15T07:58:48;16.10;99.90
28532;DHT22;15738;44.860;10.066;2023-04-15T08:01:34;15.90;99.90
28532;DHT22;15738;44.860;10.066;2023-04-15T08:04:20;15.90;99.90
28532;DHT22;15738;44.860;10.066;2023-04-15T08:07:06;15.80;99.90
28532;DHT22;15738;44.860;10.066;2023-04-15T08:09:52;15.90;99.90
28532;DHT22;15738;44.860;10.066;2023-04-15T08:12:37;15.80;99.90
28532;DHT22;15738;44.860;10.066;2023-04-15T08:15:24;15.90;99.90
28532;DHT22;15738;44.860;10.066;2023-04-15T08:18:09;15.80;99.90
28532;DHT22;15738;44.860;10.066;2023-04-15T08:20:55;15.90;99.90
28532;DHT22;15738;44.860;10.066;2023-04-15T08:23:41;15.90;99.90
28532;DHT22;15738;44.860;10.066;2023-04-15T08:26:27;16.10;99.90
28532;DHT22;15738;44.860;10.066;2023-04-15T08:29:13;16.30;99.90
28532;DHT22;15738;44.860;10.066;2023-04-15T08:31:59;16.20;99.90
28532;DHT22;15738;44.860;10.066;2023-04-15T08:34:46;16.50;99.90
28532;DHT22;15738;44.860;10.066;2023-04-15T08:37:32;16.60;99.90
28532;DHT22;15738;44.860;10.066;2023-04-15T08:40:18;16.80;99.90
28532;DHT22;15738;44.860;10.066;2023-04-15T08:43:04;16.80;99.90
28532;DHT22;15738;44.860;10.066;2023-04-15T08:45:52;17.20;99.90
28532;DHT22;15738;44.860;10.066;2023-04-15T08:48:37;17.30;99.90
28532;DHT22;15738;44.860;10.066;2023-04-15T08:51:27;17.30;99.90
28532;DHT22;15738;44.860;10.066;2023-04-15T08:54:12;17.70;99.90
28532;DHT22;15738;44.860;10.066;2023-04-15T08:56:58;17.90;99.90
28532;DHT22;15738;44.860;10.066;2023-04-15T08:59:44;17.80;99.90
28532;DHT22;15738;44.860;10.066;2023-04-15T09:02:30;17.80;99.90
28532;DHT22;15738;44.860;10.066;2023-04-15T09:05:15;17.90;99.90
28532;DHT22;15738;44.860;10.066;2023-04-15T09:08:02;17.90;99.90
28532;DHT22;15738;44.860;10.066;2023-04-15T09:10:47;17.60;99.90
28532;DHT22;15738;44.860;10.066;2023-04-15T09:13:33;17.70;99.90
28532;DHT22;15738;44.860;10.066;2023-04-15T09:16:19;17.80;99.90
28532;DHT22;15738;44.860;10.066;2023-04-15T09:19:21;17.90;99.90
28532;DHT22;15738;44.860;10.066;2023-04-15T09:22:07;18.50;99.90
28532;DHT22;15738;44.860;10.066;2023-04-15T09:24:53;17.70;99.90
28532;DHT22;15738;44.860;10.066;2023-04-15T09:28:01;17.70;99.90
28532;DHT22;15738;44.860;10.066;2023-04-15T09:30:45;17.90;99.90
28532;DHT22;15738;44.860;10.066;2023-04-15T09:33:34;17.90;99.90
28532;DHT22;15738;44.860;10.066;2023-04-15T09:36:22;17.60;99.90
28532;DHT22;15738;44.860;10.066;2023-04-15T09:39:09;17.60;99.90
28532;DHT22;15738;44.860;10.066;2023-04-15T09:42:05;17.70;99.90
28532;DHT22;15738;44.860;10.066;2023-04-15T09:44:51;17.70;99.90
28532;DHT22;15738;44.860;10.066;2023-04-15T09:47:40;17.50;99.90
28532;DHT22;15738;44.860;10.066;2023-04-15T09:50:26;17.40;99.90
28532;DHT22;15738;44.860;10.066;2023-04-15T09:53:20;17.50;99.90
28532;DHT22;15738;44.860;10.066;2023-04-15T09:56:07;17.60;99.90
28532;DHT22;15738;44.860;10.066;2023-04-15T09:58:55;17.90;99.90
28532;DHT22;15738;44.860;10.066;2023-04-15T10:01:41;18.10;99.90
28532;DHT22;15738;44.860;10.066;2023-04-15T10:04:27;17.70;99.90
28532;DHT22;15738;44.860;10.066;2023-04-15T10:07:13;17.40;99.90
28532;DHT22;15738;44.860;10.066;2023-04-15T10:09:59;17.60;99.90
28532;DHT22;15738;44.860;10.066;2023-04-15T10:12:48;17.20;99.90
28532;DHT22;15738;44.860;10.066;2023-04-15T10:15:35;17.20;99.90
28532;DHT22;15738;44.860;10.066;2023-04-15T10:18:22;17.30;99.90
28532;DHT22;15738;44.860;10.066;2023-04-15T10:21:10;17.40;99.90
28532;DHT22;15738;44.860;10.066;2023-04-15T10:23:58;17.40;99.90
28532;DHT22;15738;44.860;10.066;2023-04-15T10:26:46;17.30;99.90
28532;DHT22;15738;44.860;10.066;2023-04-15T10:29:31;17.30;99.90
28532;DHT22;15738;44.860;10.066;2023-04-15T10:32:19;17.40;99.90
28532;DHT22;15738;44.860;10.066;2023-04-15T10:35:06;17.40;99.90
28532;DHT22;15738;44.860;10.066;2023-04-15T10:37:53;17.30;99.90
28532;DHT22;15738;44.860;10.066;2023-04-15T10:40:39;17.30;99.90
28532;DHT22;15738;44.860;10.066;2023-04-15T10:43:25;17.40;99.90
28532;DHT22;15738;44.860;10.066;2023-04-15T10:46:12;17.70;99.90
28532;DHT22;15738;44.860;10.066;2023-04-15T10:48:59;17.70;99.90
28532;DHT22;15738;44.860;10.066;2023-04-15T10:52:00;17.70;99.90
28532;DHT22;15738;44.860;10.066;2023-04-15T10:54:46;17.20;99.90
28532;DHT22;15738;44.860;10.066;2023-04-15T10:57:36;17.10;99.90
28532;DHT22;15738;44.860;10.066;2023-04-15T11:00:30;17.00;99.90
28532;DHT22;15738;44.860;10.066;2023-04-15T11:03:16;16.90;99.90
28532;DHT22;15738;44.860;10.066;2023-04-15T11:06:02;17.00;99.90
28532;DHT22;15738;44.860;10.066;2023-04-15T11:08:52;17.00;99.90
28532;DHT22;15738;44.860;10.066;2023-04-15T11:12:03;17.20;99.90
28532;DHT22;15738;44.860;10.066;2023-04-15T11:14:49;17.10;99.90
28532;DHT22;15738;44.860;10.066;2023-04-15T11:17:35;17.20;99.90
28532;DHT22;15738;44.860;10.066;2023-04-15T11:20:21;17.40;99.90
28532;DHT22;15738;44.860;10.066;2023-04-15T11:23:07;17.50;99.90
28532;DHT22;15738;44.860;10.066;2023-04-15T11:26:00;17.40;99.90
28532;DHT22;15738;44.860;10.066;2023-04-15T11:28:46;17.50;99.90
28532;DHT22;15738;44.860;10.066;2023-04-15T11:31:32;17.40;99.90
28532;DHT22;15738;44.860;10.066;2023-04-15T11:34:21;17.40;99.90
28532;DHT22;15738;44.860;10.066;2023-04-15T11:37:07;17.50;99.90
28532;DHT22;15738;44.860;10.066;2023-04-15T11:39:53;17.60;99.90
28532;DHT22;15738;44.860;10.066;2023-04-15T11:42:39;17.50;99.90
28532;DHT22;15738;44.860;10.066;2023-04-15T11:45:44;17.60;99.90
28532;DHT22;15738;44.860;10.066;2023-04-15T11:48:33;17.60;99.90
28532;DHT22;15738;44.860;10.066;2023-04-15T11:51:18;17.60;99.90
28532;DHT22;15738;44.860;10.066;2023-04-15T11:54:05;17.50;99.90
28532;DHT22;15738;44.860;10.066;2023-04-15T11:56:52;17.50;99.90
28532;DHT22;15738;44.860;10.066;2023-04-15T11:59:42;17.30;99.90
28532;DHT22;15738;44.860;10.066;2023-04-15T12:02:30;17.20;99.90
28532;DHT22;15738;44.860;10.066;2023-04-15T12:05:16;17.30;99.90
28532;DHT22;15738;44.860;10.066;2023-04-15T12:08:02;17.30;99.90
28532;DHT22;15738;44.860;10.066;2023-04-15T12:10:48;17.30;99.90
28532;DHT22;15738;44.860;10.066;2023-04-15T12:13:33;17.40;99.90
28532;DHT22;15738;44.860;10.066;2023-04-15T12:16:19;17.40;99.90
28532;DHT22;15738;44.860;10.066;2023-04-15T12:19:06;17.20;99.90
28532;DHT22;15738;44.860;10.066;2023-04-15T12:21:56;17.10;99.90
28532;DHT22;15738;44.860;10.066;2023-04-15T12:24:44;17.20;99.90
28532;DHT22;15738;44.860;10.066;2023-04-15T12:27:33;17.20;99.90
28532;DHT22;15738;44.860;10.066;2023-04-15T12:30:20;17.20;99.90
28532;DHT22;15738;44.860;10.066;2023-04-15T12:33:07;17.50;99.90
28532;DHT22;15738;44.860;10.066;2023-04-15T12:35:55;17.60;99.90
28532;DHT22;15738;44.860;10.066;2023-04-15T12:38:40;17.60;99.90
28532;DHT22;15738;44.860;10.066;2023-04-15T12:41:26;17.70;99.90
28532;DHT22;15738;44.860;10.066;2023-04-15T12:44:12;17.80;99.90
28532;DHT22;15738;44.860;10.066;2023-04-15T12:46:58;17.70;99.90
28532;DHT22;15738;44.860;10.066;2023-04-15T12:49:44;17.80;99.90
28532;DHT22;15738;44.860;10.066;2023-04-15T12:52:30;17.90;99.90
28532;DHT22;15738;44.860;10.066;2023-04-15T12:55:15;18.00;99.90
28532;DHT22;15738;44.860;10.066;2023-04-15T12:58:02;17.90;99.90
28532;DHT22;15738;44.860;10.066;2023-04-15T13:00:51;18.10;99.90
28532;DHT22;15738;44.860;10.066;2023-04-15T13:03:36;18.00;99.90
28532;DHT22;15738;44.860;10.066;2023-04-15T13:06:22;18.00;99.90
28532;DHT22;15738;44.860;10.066;2023-04-15T13:09:09;17.90;99.90
28532;DHT22;15738;44.860;10.066;2023-04-15T13:11:54;17.90;99.90
28532;DHT22;15738;44.860;10.066;2023-04-15T13:14:40;18.00;99.90
28532;DHT22;15738;44.860;10.066;2023-04-15T13:17:26;18.00;99.90
28532;DHT22;15738;44.860;10.066;2023-04-15T13:20:12;17.90;99.90
28532;DHT22;15738;44.860;10.066;2023-04-15T13:22:57;17.80;99.90
28532;DHT22;15738;44.860;10.066;2023-04-15T13:25:43;17.90;99.90
28532;DHT22;15738;44.860;10.066;2023-04-15T13:28:29;18.00;99.90
28532;DHT22;15738;44.860;10.066;2023-04-15T13:31:15;17.90;99.90
28532;DHT22;15738;44.860;10.066;2023-04-15T13:34:03;18.00;99.90
28532;DHT22;15738;44.860;10.066;2023-04-15T13:36:49;17.90;99.10
28532;DHT22;15738;44.860;10.066;2023-04-15T13:39:34;18.00;99.90
28532;DHT22;15738;44.860;10.066;2023-04-15T13:42:21;17.90;99.70
28532;DHT22;15738;44.860;10.066;2023-04-15T13:45:07;18.00;99.90
28532;DHT22;15738;44.860;10.066;2023-04-15T13:47:52;17.90;99.90
28532;DHT22;15738;44.860;10.066;2023-04-15T13:50:40;18.00;99.90
28532;DHT22;15738;44.860;10.066;2023-04-15T13:53:29;18.20;99.90
28532;DHT22;15738;44.860;10.066;2023-04-15T13:56:23;18.20;99.90
28532;DHT22;15738;44.860;10.066;2023-04-15T13:59:09;18.40;99.90
28532;DHT22;15738;44.860;10.066;2023-04-15T14:01:55;18.50;99.90
28532;DHT22;15738;44.860;10.066;2023-04-15T14:04:41;18.70;99.90
28532;DHT22;15738;44.860;10.066;2023-04-15T14:07:27;18.80;99.90
28532;DHT22;15738;44.860;10.066;2023-04-15T14:10:13;18.80;99.90
28532;DHT22;15738;44.860;10.066;2023-04-15T14:12:58;18.80;99.90
28532;DHT22;15738;44.860;10.066;2023-04-15T14:15:44;18.80;99.90
28532;DHT22;15738;44.860;10.066;2023-04-15T14:18:30;18.80;99.60
28532;DHT22;15738;44.860;10.066;2023-04-15T14:21:17;18.70;99.90
28532;DHT22;15738;44.860;10.066;2023-04-15T14:24:03;18.60;99.90
28532;DHT22;15738;44.860;10.066;2023-04-15T14:26:48;18.80;99.90
28532;DHT22;15738;44.860;10.066;2023-04-15T14:29:34;18.70;99.90
28532;DHT22;15738;44.860;10.066;2023-04-15T14:32:28;18.60;99.90
28532;DHT22;15738;44.860;10.066;2023-04-15T14:35:14;18.60;99.90
28532;DHT22;15738;44.860;10.066;2023-04-15T14:38:00;18.30;99.90
28532;DHT22;15738;44.860;10.066;2023-04-15T14:40:46;18.30;99.90
28532;DHT22;15738;44.860;10.066;2023-04-15T14:43:32;18.20;99.90
28532;DHT22;15738;44.860;10.066;2023-04-15T14:46:17;18.10;99.90
28532;DHT22;15738;44.860;10.066;2023-04-15T14:49:03;18.00;99.90
28532;DHT22;15738;44.860;10.066;2023-04-15T14:51:50;18.00;99.90
28532;DHT22;15738;44.860;10.066;2023-04-15T14:54:36;18.10;99.90
28532;DHT22;15738;44.860;10.066;2023-04-15T14:57:22;18.30;99.90
28532;DHT22;15738;44.860;10.066;2023-04-15T15:00:08;18.50;99.90
28532;DHT22;15738;44.860;10.066;2023-04-15T15:03:00;18.60;99.90
28532;DHT22;15738;44.860;10.066;2023-04-15T15:05:46;18.60;99.90
28532;DHT22;15738;44.860;10.066;2023-04-15T15:08:32;18.70;99.90
28532;DHT22;15738;44.860;10.066;2023-04-15T15:11:18;18.60;99.90
28532;DHT22;15738;44.860;10.066;2023-04-15T15:14:04;18.50;99.90
28532;DHT22;15738;44.860;10.066;2023-04-15T15:16:50;18.50;99.90
28532;DHT22;15738;44.860;10.066;2023-04-15T15:19:36;18.50;99.90
28532;DHT22;15738;44.860;10.066;2023-04-15T15:22:22;18.50;99.90
28532;DHT22;15738;44.860;10.066;2023-04-15T15:25:10;18.60;99.90
28532;DHT22;15738;44.860;10.066;2023-04-15T15:27:56;18.60;99.90
28532;DHT22;15738;44.860;10.066;2023-04-15T15:30:42;18.50;99.90
28532;DHT22;15738;44.860;10.066;2023-04-15T15:33:27;18.60;99.90
28532;DHT22;15738;44.860;10.066;2023-04-15T15:36:14;18.60;99.90
28532;DHT22;15738;44.860;10.066;2023-04-15T15:39:00;18.60;99.90
28532;DHT22;15738;44.860;10.066;2023-04-15T15:41:46;18.70;99.90
28532;DHT22;15738;44.860;10.066;2023-04-15T15:44:32;18.80;99.90
28532;DHT22;15738;44.860;10.066;2023-04-15T15:47:19;18.70;99.90
28532;DHT22;15738;44.860;10.066;2023-04-15T15:50:06;18.70;99.90
28532;DHT22;15738;44.860;10.066;2023-04-15T15:52:52;18.60;99.90
28532;DHT22;15738;44.860;10.066;2023-04-15T15:55:37;18.40;99.90
28532;DHT22;15738;44.860;10.066;2023-04-15T15:58:23;18.40;99.90
28532;DHT22;15738;44.860;10.066;2023-04-15T16:01:09;18.30;99.90
28532;DHT22;15738;44.860;10.066;2023-04-15T16:03:55;18.40;99.90
28532;DHT22;15738;44.860;10.066;2023-04-15T16:06:41;18.20;99.90
28532;DHT22;15738;44.860;10.066;2023-04-15T16:09:29;17.50;99.90
28532;DHT22;15738;44.860;10.066;2023-04-15T16:12:15;18.00;99.90
28532;DHT22;15738;44.860;10.066;2023-04-15T16:15:01;17.90;99.90
28532;DHT22;15738;44.860;10.066;2023-04-15T16:17:48;17.80;99.90
28532;DHT22;15738;44.860;10.066;2023-04-15T16:20:33;17.70;99.90
28532;DHT22;15738;44.860;10.066;2023-04-15T16:23:19;17.70;99.90
28532;DHT22;15738;44.860;10.066;2023-04-15T16:26:05;17.70;99.90
28532;DHT22;15738;44.860;10.066;2023-04-15T16:28:51;17.70;99.90
28532;DHT22;15738;44.860;10.066;2023-04-15T16:31:37;17.80;99.90
28532;DHT22;15738;44.860;10.066;2023-04-15T16:34:24;17.70;99.90
28532;DHT22;15738;44.860;10.066;2023-04-15T16:37:09;17.60;99.90
28532;DHT22;15738;44.860;10.066;2023-04-15T16:39:55;17.60;99.90
28532;DHT22;15738;44.860;10.066;2023-04-15T16:42:41;17.70;99.90
28532;DHT22;15738;44.860;10.066;2023-04-15T16:45:28;17.70;99.90
28532;DHT22;15738;44.860;10.066;2023-04-15T16:48:13;17.50;99.90
28532;DHT22;15738;44.860;10.066;2023-04-15T16:50:59;17.50;99.90
28532;DHT22;15738;44.860;10.066;2023-04-15T16:53:45;17.50;99.90
28532;DHT22;15738;44.860;10.066;2023-04-15T16:56:30;17.40;99.90
28532;DHT22;15738;44.860;10.066;2023-04-15T16:59:16;17.40;99.90
28532;DHT22;15738;44.860;10.066;2023-04-15T17:02:03;17.40;99.90
28532;DHT22;15738;44.860;10.066;2023-04-15T17:04:48;17.30;99.90
28532;DHT22;15738;44.860;10.066;2023-04-15T17:07:34;17.20;99.90
28532;DHT22;15738;44.860;10.066;2023-04-15T17:10:20;17.00;99.90
28532;DHT22;15738;44.860;10.066;2023-04-15T17:13:06;16.90;99.90
28532;DHT22;15738;44.860;10.066;2023-04-15T17:15:52;16.90;99.90
28532;DHT22;15738;44.860;10.066;2023-04-15T17:18:40;16.80;99.90